createdAt,value
2022-08-11T00:00:18.249Z,4.50
2022-08-11T00:01:27.141Z,4.12
2022-08-11T00:02:41.994Z,4.79
2022-08-11T00:03:57.265Z,4.46
2022-08-11T00:05:06.384Z,4.21
2022-08-11T00:06:12.189Z,4.42
2022-08-11T00:07:14.502Z,4.42
2022-08-11T00:08:25.626Z,4.75
2022-08-11T00:09:31.504Z,4.12
2022-08-11T00:10:34.499Z,4.10
2022-08-11T00:11:46.375Z,4.71
2022-08-11T00:12:54.652Z,4.37
2022-08-11T00:13:57.387Z,4.46
2022-08-11T00:15:01.060Z,4.86
2022-08-11T00:16:06.938Z,3.99
2022-08-11T00:17:15.317Z,4.48
2022-08-11T00:18:19.646Z,4.39
2022-08-11T00:20:12.077Z,4.36
2022-08-11T00:20:34.816Z,4.28
2022-08-11T00:22:02.889Z,4.24
2022-08-11T00:22:47.607Z,4.43
2022-08-11T00:23:56.303Z,4.51
2022-08-11T00:25:02.807Z,4.09
2022-08-11T00:26:07.363Z,4.56
2022-08-11T00:27:09.683Z,4.30
2022-08-11T00:28:34.230Z,4.60
2022-08-11T00:29:36.858Z,4.47
2022-08-11T00:30:41.167Z,4.29
2022-08-11T00:31:49.865Z,4.53
2022-08-11T00:32:58.176Z,4.67
2022-08-11T00:34:02.459Z,4.39
2022-08-11T00:35:51.863Z,5.18
2022-08-11T00:36:15.273Z,4.35
2022-08-11T00:37:22.597Z,4.49
2022-08-11T00:38:28.066Z,5.26
2022-08-11T00:39:33.459Z,4.90
2022-08-11T00:40:44.944Z,4.99
2022-08-11T00:42:09.474Z,4.87
2022-08-11T00:45:05.555Z,5.26
2022-08-11T00:47:33.655Z,4.47
2022-08-11T00:48:51.569Z,4.63
2022-08-11T00:50:09.790Z,4.34
2022-08-11T00:51:21.724Z,4.84
2022-08-11T00:52:37.011Z,4.42
2022-08-11T00:53:59.875Z,4.73
2022-08-11T00:55:28.712Z,3.87
2022-08-11T00:56:37.423Z,4.76
2022-08-11T00:57:52.437Z,4.66
2022-08-11T00:59:35.438Z,4.36
2022-08-11T01:00:35.506Z,4.41
2022-08-11T01:01:53.958Z,4.10
2022-08-11T01:03:18.084Z,4.72
2022-08-11T01:04:42.477Z,4.57
2022-08-11T01:06:08.202Z,4.58
2022-08-11T01:08:01.560Z,4.41
2022-08-11T01:08:44.950Z,4.43
2022-08-11T01:10:15.408Z,4.52
2022-08-11T01:11:30.248Z,4.09
2022-08-11T01:12:45.530Z,4.74
2022-08-11T01:14:07.919Z,3.88
2022-08-11T01:15:34.889Z,4.46
2022-08-11T01:16:59.451Z,4.13
2022-08-11T01:18:39.017Z,4.33
2022-08-11T01:20:46.493Z,4.74
2022-08-11T01:21:21.561Z,4.71
2022-08-11T01:25:19.275Z,4.79
2022-08-11T01:26:42.345Z,4.44
2022-08-11T01:28:15.823Z,4.61
2022-08-11T01:29:49.239Z,4.28
2022-08-11T01:31:11.275Z,4.73
2022-08-11T01:32:26.208Z,4.75
2022-08-11T01:34:07.477Z,5.36
2022-08-11T01:35:29.902Z,4.96
2022-08-11T01:36:42.006Z,6.13
2022-08-11T01:38:07.923Z,5.59
2022-08-11T01:39:18.457Z,4.57
2022-08-11T01:40:49.003Z,4.90
2022-08-11T01:42:00.904Z,4.91
2022-08-11T01:43:29.923Z,4.74
2022-08-11T01:44:53.738Z,5.15
2022-08-11T01:46:03.161Z,4.83
2022-08-11T01:47:21.851Z,5.19
2022-08-11T01:48:41.069Z,5.06
2022-08-11T01:50:10.233Z,5.67
2022-08-11T01:51:17.491Z,4.54
2022-08-11T01:52:33.355Z,5.27
2022-08-11T01:53:46.039Z,5.07
2022-08-11T01:55:12.116Z,4.57
2022-08-11T01:56:35.022Z,4.88
2022-08-11T01:57:43.978Z,5.04
2022-08-11T01:59:08.269Z,4.79
2022-08-11T02:01:47.201Z,4.45
2022-08-11T02:03:08.471Z,4.40
2022-08-11T02:04:20.218Z,4.46
2022-08-11T02:05:38.241Z,5.19
2022-08-11T02:06:50.207Z,4.89
2022-08-11T02:08:05.259Z,4.86
2022-08-11T02:09:28.292Z,5.03
2022-08-11T02:12:08.507Z,4.84
2022-08-11T02:13:37.201Z,4.42
2022-08-11T02:15:59.491Z,5.05
2022-08-11T02:17:22.486Z,5.15
2022-08-11T02:18:28.359Z,4.81
2022-08-11T02:19:46.497Z,5.24
2022-08-11T02:20:54.181Z,5.27
2022-08-11T02:22:17.571Z,4.87
2022-08-11T02:24:06.932Z,4.90
2022-08-11T02:24:56.905Z,4.49
2022-08-11T02:26:22.248Z,4.35
2022-08-11T02:27:28.132Z,5.27
2022-08-11T02:29:06.907Z,4.81
2022-08-11T02:30:18.729Z,5.54
2022-08-11T02:32:25.554Z,4.84
2022-08-11T02:32:57.068Z,4.84
2022-08-11T02:34:37.084Z,5.62
2022-08-11T02:37:04.807Z,5.56
2022-08-11T02:38:36.869Z,4.78
2022-08-11T02:39:48.391Z,4.88
2022-08-11T02:41:14.488Z,5.02
2022-08-11T02:42:32.665Z,5.14
2022-08-11T02:43:36.615Z,4.39
2022-08-11T02:44:57.976Z,4.94
2022-08-11T02:46:20.365Z,5.22
2022-08-11T02:47:38.531Z,4.65
2022-08-11T02:48:59.852Z,5.27
2022-08-11T02:50:14.868Z,5.51
2022-08-11T02:51:27.063Z,5.08
2022-08-11T02:52:54.107Z,5.04
2022-08-11T02:54:21.763Z,5.36
2022-08-11T02:55:57.310Z,5.32
2022-08-11T02:57:03.652Z,5.38
2022-08-11T02:58:19.902Z,4.74
2022-08-11T02:59:29.578Z,4.71
2022-08-11T03:00:36.757Z,5.01
2022-08-11T03:01:42.625Z,5.32
2022-08-11T03:02:48.658Z,5.12
2022-08-11T03:04:00.115Z,4.92
2022-08-11T03:05:05.995Z,5.38
2022-08-11T03:06:21.677Z,4.92
2022-08-11T03:07:33.360Z,5.16
2022-08-11T03:08:42.458Z,5.07
2022-08-11T03:09:51.200Z,5.57
2022-08-11T03:11:06.326Z,5.66
2022-08-11T03:13:30.925Z,5.96
2022-08-11T03:14:36.763Z,5.58
2022-08-11T03:16:01.241Z,5.14
2022-08-11T03:17:16.279Z,5.64
2022-08-11T03:18:28.114Z,6.40
2022-08-11T03:19:43.187Z,5.43
2022-08-11T03:20:55.044Z,4.95
2022-08-11T03:22:33.526Z,5.68
2022-08-11T03:23:42.227Z,5.49
2022-08-11T03:24:48.115Z,5.13
2022-08-11T03:26:09.147Z,5.09
2022-08-11T03:27:21.051Z,5.43
2022-08-11T03:28:46.878Z,4.93
2022-08-11T03:30:04.699Z,4.72
2022-08-11T03:31:19.611Z,5.89
2022-08-11T03:32:35.135Z,5.34
2022-08-11T03:33:55.914Z,5.01
2022-08-11T03:35:00.894Z,4.47
2022-08-11T03:36:16.237Z,5.28
2022-08-11T03:37:39.227Z,5.01
2022-08-11T03:39:05.298Z,5.14
2022-08-11T03:40:31.309Z,5.12
2022-08-11T03:42:02.329Z,5.02
2022-08-11T03:42:57.107Z,5.33
2022-08-11T03:44:19.852Z,4.87
2022-08-11T03:47:07.349Z,5.62
2022-08-11T03:48:22.518Z,5.84
2022-08-11T03:49:34.303Z,5.37
2022-08-11T03:50:55.960Z,5.22
2022-08-11T03:53:45.517Z,4.81
2022-08-11T03:55:23.515Z,5.13
2022-08-11T03:56:55.658Z,5.72
2022-08-11T03:58:16.565Z,4.89
2022-08-11T04:01:27.779Z,4.48
2022-08-11T04:02:40.005Z,5.19
2022-08-11T04:04:08.872Z,5.18
2022-08-11T04:05:31.346Z,4.96
2022-08-11T04:07:11.239Z,5.23
2022-08-11T04:08:35.650Z,5.95
2022-08-11T04:11:09.337Z,5.21
2022-08-11T04:12:36.418Z,5.25
2022-08-11T04:13:51.331Z,4.61
2022-08-11T04:15:17.103Z,5.07
2022-08-11T04:16:26.084Z,5.22
2022-08-11T04:17:34.835Z,5.49
2022-08-11T04:18:57.487Z,4.83
2022-08-11T04:20:18.503Z,4.67
2022-08-11T04:21:36.332Z,5.06
2022-08-11T04:23:03.685Z,5.44
2022-08-11T04:24:35.190Z,5.26
2022-08-11T04:25:34.272Z,5.40
2022-08-11T04:27:19.246Z,5.19
2022-08-11T04:28:43.049Z,5.91
2022-08-11T04:30:03.650Z,5.34
2022-08-11T04:31:12.753Z,6.07
2022-08-11T04:34:01.184Z,6.69
2022-08-11T04:35:33.426Z,5.39
2022-08-11T04:36:52.622Z,6.34
2022-08-11T04:38:01.579Z,5.56
2022-08-11T04:39:10.504Z,6.03
2022-08-11T04:40:23.940Z,5.88
2022-08-11T04:41:49.726Z,6.36
2022-08-11T04:43:22.286Z,5.78
2022-08-11T04:44:45.317Z,6.00
2022-08-11T04:46:09.414Z,6.40
2022-08-11T04:47:21.405Z,5.89
2022-08-11T04:48:42.586Z,7.18
2022-08-11T04:50:06.743Z,6.49
2022-08-11T04:51:38.907Z,6.03
2022-08-11T04:52:53.965Z,6.66
2022-08-11T04:54:16.643Z,5.41
2022-08-11T04:55:48.907Z,6.22
2022-08-11T04:56:57.231Z,5.69
2022-08-11T04:58:38.566Z,6.29
2022-08-11T05:01:24.730Z,6.66
2022-08-11T05:02:36.894Z,6.79
2022-08-11T05:03:49.211Z,6.89
2022-08-11T05:04:58.093Z,6.34
2022-08-11T05:06:03.928Z,5.82
2022-08-11T05:07:28.202Z,6.21
2022-08-11T05:09:04.580Z,6.94
2022-08-11T05:10:26.110Z,6.08
2022-08-11T05:12:41.954Z,6.29
2022-08-11T05:13:53.338Z,6.41
2022-08-11T05:16:03.344Z,5.54
2022-08-11T05:17:15.349Z,6.73
2022-08-11T05:18:21.197Z,5.69
2022-08-11T05:19:23.508Z,5.98
2022-08-11T05:20:27.393Z,6.50
2022-08-11T05:21:44.919Z,6.01
2022-08-11T05:22:41.148Z,5.81
2022-08-11T05:23:49.714Z,6.28
2022-08-11T05:24:58.651Z,5.78
2022-08-11T05:26:45.430Z,6.09
2022-08-11T05:27:13.819Z,5.44
2022-08-11T05:28:18.076Z,6.81
2022-08-11T05:29:30.026Z,6.44
2022-08-11T05:30:35.504Z,5.73
2022-08-11T05:31:40.979Z,5.94
2022-08-11T05:32:46.289Z,6.15
2022-08-11T05:33:54.704Z,5.75
2022-08-11T05:35:00.718Z,5.79
2022-08-11T05:36:12.627Z,6.08
2022-08-11T05:39:36.857Z,7.11
2022-08-11T05:40:52.957Z,6.25
2022-08-11T05:41:58.052Z,6.12
2022-08-11T05:43:07.258Z,5.42
2022-08-11T05:44:19.869Z,5.81
2022-08-11T05:45:17.492Z,5.57
2022-08-11T05:46:25.830Z,6.63
2022-08-11T05:47:28.418Z,6.42
2022-08-11T05:48:33.346Z,5.59
2022-08-11T05:49:36.561Z,4.71
2022-08-11T05:50:42.318Z,4.91
2022-08-11T05:51:54.705Z,5.52
2022-08-11T05:52:55.235Z,5.64
2022-08-11T05:53:59.627Z,5.71
2022-08-11T05:55:07.270Z,5.73
2022-08-11T05:56:09.984Z,5.18
2022-08-11T05:57:49.978Z,5.84
2022-08-11T05:58:28.536Z,5.77
2022-08-11T05:59:31.954Z,5.53
2022-08-11T06:00:45.524Z,5.66
2022-08-11T06:01:48.751Z,5.13
2022-08-11T06:02:53.992Z,4.84
2022-08-11T06:03:58.969Z,5.09
2022-08-11T06:05:02.171Z,4.60
2022-08-11T06:06:08.109Z,4.99
2022-08-11T06:07:12.772Z,4.89
2022-08-11T06:08:15.518Z,5.01
2022-08-11T06:10:44.810Z,5.42
2022-08-11T06:11:47.915Z,5.38
2022-08-11T06:12:56.756Z,5.16
2022-08-11T06:14:01.827Z,4.39
2022-08-11T06:15:06.741Z,4.77
2022-08-11T06:16:13.253Z,6.16
2022-08-11T06:17:38.867Z,4.67
2022-08-11T06:18:32.691Z,4.52
2022-08-11T06:19:43.513Z,5.35
2022-08-11T06:20:48.520Z,4.69
2022-08-11T06:21:51.017Z,5.48
2022-08-11T06:22:59.968Z,4.89
2022-08-11T06:24:13.876Z,4.49
2022-08-11T06:25:16.931Z,4.76
2022-08-11T06:26:23.999Z,4.62
2022-08-11T06:27:29.084Z,4.69
2022-08-11T06:28:37.116Z,4.71
2022-08-11T06:29:48.174Z,4.94
2022-08-11T06:30:56.143Z,4.51
2022-08-11T06:32:01.153Z,4.59
2022-08-11T06:33:13.197Z,4.97
2022-08-11T06:34:26.623Z,4.59
2022-08-11T06:35:55.452Z,4.15
2022-08-11T06:37:07.540Z,4.77
2022-08-11T06:38:33.342Z,4.53
2022-08-11T06:39:54.497Z,4.76
2022-08-11T06:41:00.509Z,4.30
2022-08-11T06:42:09.183Z,4.59
2022-08-11T06:43:23.729Z,4.91
2022-08-11T06:44:35.038Z,4.36
2022-08-11T06:45:42.811Z,4.04
2022-08-11T06:46:51.441Z,4.31
2022-08-11T06:47:56.026Z,4.40
2022-08-11T06:49:03.458Z,4.55
2022-08-11T06:50:07.085Z,4.98
2022-08-11T06:51:12.979Z,5.28
2022-08-11T06:52:34.657Z,4.54
2022-08-11T06:53:22.958Z,4.49
2022-08-11T06:54:30.901Z,4.82
2022-08-11T06:55:55.680Z,4.78
2022-08-11T06:56:41.358Z,4.91
2022-08-11T06:57:46.558Z,4.52
2022-08-11T06:58:50.069Z,4.65
2022-08-11T06:59:53.950Z,4.79
2022-08-11T07:01:04.886Z,4.13
2022-08-11T07:02:11.015Z,4.52
2022-08-11T07:03:18.954Z,4.21
2022-08-11T07:04:25.024Z,4.56
2022-08-11T07:05:56.323Z,4.63
2022-08-11T07:07:31.124Z,4.19
2022-08-11T07:08:42.505Z,4.38
2022-08-11T07:10:14.615Z,4.48
2022-08-11T07:11:23.548Z,4.23
2022-08-11T07:12:38.287Z,4.63
2022-08-11T07:13:45.427Z,4.58
2022-08-11T07:15:00.131Z,4.25
2022-08-11T07:16:13.207Z,4.41
2022-08-11T07:17:07.009Z,4.53
2022-08-11T07:18:12.266Z,4.31
2022-08-11T07:19:23.606Z,4.92
2022-08-11T07:20:26.748Z,4.54
2022-08-11T07:22:00.026Z,4.26
2022-08-11T07:22:43.175Z,4.63
2022-08-11T07:23:45.846Z,4.97
2022-08-11T07:25:09.806Z,4.96
2022-08-11T07:26:14.648Z,5.06
2022-08-11T07:27:22.775Z,5.33
2022-08-11T07:28:29.462Z,5.10
2022-08-11T07:29:34.936Z,5.07
2022-08-11T07:30:40.820Z,5.55
2022-08-11T07:31:51.398Z,4.90
2022-08-11T07:33:00.124Z,5.64
2022-08-11T07:34:18.104Z,4.81
2022-08-11T07:35:31.703Z,5.37
2022-08-11T07:36:38.798Z,4.71
2022-08-11T07:37:44.661Z,5.09
2022-08-11T07:38:52.182Z,5.35
2022-08-11T07:39:56.784Z,4.60
2022-08-11T07:40:59.385Z,5.18
2022-08-11T07:42:08.374Z,4.55
2022-08-11T07:43:12.508Z,4.79
2022-08-11T07:44:15.741Z,4.70
2022-08-11T07:45:22.547Z,4.71
2022-08-11T07:46:26.246Z,4.64
2022-08-11T07:47:29.313Z,4.33
2022-08-11T07:48:34.290Z,4.83
2022-08-11T07:49:38.349Z,4.31
2022-08-11T07:50:42.472Z,5.11
2022-08-11T07:51:45.243Z,4.45
2022-08-11T07:52:47.587Z,4.81
2022-08-11T07:53:58.249Z,5.32
2022-08-11T07:56:14.551Z,4.41
2022-08-11T07:58:11.193Z,4.11
2022-08-11T07:58:25.871Z,4.21
2022-08-11T08:00:03.858Z,4.05
2022-08-11T08:00:47.102Z,3.02
2022-08-11T08:01:50.728Z,3.33
2022-08-11T08:02:55.616Z,3.67
2022-08-11T08:04:04.496Z,4.18
2022-08-11T08:05:07.753Z,3.59
2022-08-11T08:06:28.411Z,4.21
2022-08-11T08:07:18.746Z,2.92
2022-08-11T08:08:22.178Z,2.84
2022-08-11T08:09:26.261Z,3.11
2022-08-11T08:10:31.780Z,3.34
2022-08-11T08:11:36.217Z,3.69
2022-08-11T08:12:40.390Z,3.31
2022-08-11T08:13:43.367Z,3.06
2022-08-11T08:14:47.847Z,3.05
2022-08-11T08:15:50.815Z,4.33
2022-08-11T08:16:55.387Z,3.66
2022-08-11T08:18:09.538Z,3.79
2022-08-11T08:19:04.677Z,3.82
2022-08-11T08:20:10.973Z,3.42
2022-08-11T08:21:13.849Z,3.99
2022-08-11T08:22:39.211Z,3.84
2022-08-11T08:23:26.601Z,4.17
2022-08-11T08:24:30.410Z,3.84
2022-08-11T08:26:51.745Z,4.24
2022-08-11T08:27:55.703Z,3.96
2022-08-11T08:29:04.247Z,4.14
2022-08-11T08:30:07.974Z,4.31
2022-08-11T08:31:10.789Z,4.42
2022-08-11T08:32:14.039Z,4.47
2022-08-11T08:34:32.316Z,4.36
2022-08-11T08:35:37.444Z,4.24
2022-08-11T08:36:47.065Z,3.98
2022-08-11T08:37:53.227Z,4.31
2022-08-11T08:38:55.893Z,4.06
2022-08-11T08:39:58.576Z,4.14
2022-08-11T08:41:02.162Z,4.54
2022-08-11T08:42:11.090Z,4.50
2022-08-11T08:43:15.953Z,4.27
2022-08-11T08:44:37.659Z,4.76
2022-08-11T08:45:26.659Z,4.04
2022-08-11T08:46:46.686Z,4.37
2022-08-11T08:48:01.797Z,4.57
2022-08-11T08:49:05.208Z,4.51
2022-08-11T08:50:18.605Z,5.31
2022-08-11T08:51:22.960Z,4.76
2022-08-11T08:52:31.874Z,5.16
2022-08-11T08:53:36.150Z,5.00
2022-08-11T08:54:41.225Z,5.38
2022-08-11T08:55:45.687Z,4.82
2022-08-11T08:56:52.026Z,4.79
2022-08-11T08:57:56.563Z,5.48
2022-08-11T08:59:01.464Z,5.38
2022-08-11T09:00:06.069Z,5.55
2022-08-11T09:01:13.235Z,5.19
2022-08-11T09:02:18.201Z,4.97
2022-08-11T09:04:06.605Z,5.57
2022-08-11T09:04:28.604Z,5.31
2022-08-11T09:05:31.410Z,4.94
2022-08-11T09:06:37.255Z,5.34
2022-08-11T09:07:41.109Z,5.25
2022-08-11T09:08:44.749Z,5.43
2022-08-11T09:09:53.160Z,4.63
2022-08-11T09:10:57.011Z,5.47
2022-08-11T09:12:00.095Z,5.74
2022-08-11T09:13:05.525Z,5.80
2022-08-11T09:14:14.324Z,5.58
2022-08-11T09:15:14.175Z,5.52
2022-08-11T09:16:18.628Z,4.82
2022-08-11T09:17:22.318Z,5.27
2022-08-11T09:18:24.986Z,5.14
2022-08-11T09:19:27.291Z,4.77
2022-08-11T09:20:33.232Z,4.82
2022-08-11T09:21:46.436Z,5.18
2022-08-11T09:22:44.160Z,5.88
2022-08-11T09:24:54.900Z,5.62
2022-08-11T09:26:00.377Z,5.58
2022-08-11T09:27:06.286Z,5.58
2022-08-11T09:28:13.789Z,5.18
2022-08-11T09:29:16.660Z,5.71
2022-08-11T09:30:20.951Z,5.36
2022-08-11T09:31:23.423Z,5.99
2022-08-11T09:32:26.781Z,6.19
2022-08-11T09:33:33.202Z,5.74
2022-08-11T09:34:37.998Z,5.99
2022-08-11T09:35:41.296Z,5.48
2022-08-11T09:36:44.671Z,5.71
2022-08-11T09:37:55.693Z,5.72
2022-08-11T09:38:52.645Z,5.59
2022-08-11T09:39:56.321Z,5.65
2022-08-11T09:40:59.812Z,5.46
2022-08-11T09:42:04.513Z,6.11
2022-08-11T09:43:09.985Z,5.71
2022-08-11T09:44:13.559Z,6.11
2022-08-11T09:45:16.512Z,5.78
2022-08-11T09:47:35.447Z,5.43
2022-08-11T09:48:44.181Z,5.85
2022-08-11T09:49:47.560Z,5.05
2022-08-11T09:50:59.665Z,5.55
2022-08-11T09:52:05.344Z,5.54
2022-08-11T09:53:34.768Z,5.68
2022-08-11T09:54:15.087Z,5.34
2022-08-11T09:55:17.964Z,5.56
2022-08-11T09:56:23.704Z,6.21
2022-08-11T09:57:26.714Z,5.84
2022-08-11T09:58:43.006Z,6.20
2022-08-11T09:59:34.054Z,5.83
2022-08-11T10:00:37.425Z,5.79
2022-08-11T10:01:48.733Z,6.28
2022-08-11T10:04:02.119Z,5.80
2022-08-11T10:05:06.697Z,5.50
2022-08-11T10:06:11.762Z,5.88
2022-08-11T10:07:16.104Z,5.31
2022-08-11T10:08:21.998Z,5.41
2022-08-11T10:09:25.368Z,5.82
2022-08-11T10:10:30.465Z,5.80
2022-08-11T10:11:35.882Z,5.15
2022-08-11T10:12:41.749Z,5.82
2022-08-11T10:14:32.760Z,5.88
2022-08-11T10:14:55.872Z,5.64
2022-08-11T10:16:15.363Z,6.21
2022-08-11T10:17:08.712Z,6.17
2022-08-11T10:19:24.595Z,5.82
2022-08-11T10:20:27.751Z,5.87
2022-08-11T10:21:40.106Z,5.60
2022-08-11T10:22:42.836Z,6.16
2022-08-11T10:24:00.565Z,6.11
2022-08-11T10:24:52.674Z,6.42
2022-08-11T10:25:56.100Z,5.98
2022-08-11T10:27:00.316Z,5.90
2022-08-11T10:28:28.322Z,5.94
2022-08-11T10:29:14.088Z,5.69
2022-08-11T10:30:18.827Z,6.77
2022-08-11T10:31:22.686Z,6.07
2022-08-11T10:32:31.449Z,6.33
2022-08-11T10:33:36.930Z,6.34
2022-08-11T10:34:37.767Z,6.02
2022-08-11T10:35:44.322Z,6.09
2022-08-11T10:36:48.104Z,6.32
2022-08-11T10:38:06.695Z,5.93
2022-08-11T10:38:56.689Z,5.89
2022-08-11T10:40:00.223Z,5.66
2022-08-11T10:41:03.603Z,5.53
2022-08-11T10:42:12.183Z,5.78
2022-08-11T10:44:01.280Z,5.99
2022-08-11T10:44:19.871Z,5.54
2022-08-11T10:45:23.237Z,6.04
2022-08-11T10:46:30.341Z,5.89
2022-08-11T10:47:31.363Z,5.98
2022-08-11T10:48:37.995Z,6.13
2022-08-11T10:49:41.576Z,5.71
2022-08-11T10:50:46.446Z,5.81
2022-08-11T10:51:51.471Z,5.49
2022-08-11T10:52:55.931Z,5.61
2022-08-11T10:53:58.682Z,5.78
2022-08-11T10:55:01.376Z,6.01
2022-08-11T10:56:07.283Z,5.64
2022-08-11T10:57:11.292Z,6.14
2022-08-11T10:58:14.561Z,5.97
2022-08-11T10:59:17.536Z,6.08
2022-08-11T11:00:21.319Z,5.65
2022-08-11T11:01:26.854Z,5.67
2022-08-11T11:02:30.136Z,5.35
2022-08-11T11:03:34.724Z,5.81
2022-08-11T11:04:57.397Z,6.45
2022-08-11T11:06:29.830Z,5.69
2022-08-11T11:07:51.812Z,5.96
2022-08-11T11:10:15.335Z,6.33
2022-08-11T11:11:19.945Z,6.03
2022-08-11T11:12:46.090Z,5.63
2022-08-11T11:13:55.075Z,5.99
2022-08-11T11:14:59.153Z,5.22
2022-08-11T11:16:01.839Z,5.57
2022-08-11T11:17:09.180Z,5.36
2022-08-11T11:18:21.300Z,6.13
2022-08-11T11:19:26.664Z,5.62
2022-08-11T11:20:47.473Z,5.96
2022-08-11T11:21:55.288Z,5.31
2022-08-11T11:23:18.101Z,5.61
2022-08-11T11:24:36.217Z,5.79
2022-08-11T11:25:42.433Z,5.73
2022-08-11T11:27:00.451Z,5.47
2022-08-11T11:28:27.258Z,5.64
2022-08-11T11:29:56.556Z,5.97
2022-08-11T11:31:08.747Z,5.46
2022-08-11T11:32:36.197Z,5.78
2022-08-11T11:34:17.525Z,5.12
2022-08-11T11:35:25.378Z,5.83
2022-08-11T11:36:37.414Z,5.98
2022-08-11T11:37:41.935Z,6.29
2022-08-11T11:38:46.563Z,5.49
2022-08-11T11:39:49.974Z,5.83
2022-08-11T11:40:53.107Z,5.61
2022-08-11T11:42:01.177Z,5.46
2022-08-11T11:43:04.441Z,6.35
2022-08-11T11:44:09.172Z,5.33
2022-08-11T11:45:22.559Z,5.97
2022-08-11T11:47:29.724Z,5.23
2022-08-11T11:48:33.663Z,5.71
2022-08-11T11:49:36.354Z,5.83
2022-08-11T11:50:39.541Z,5.96
2022-08-11T11:51:49.954Z,5.51
2022-08-11T11:52:53.889Z,5.38
2022-08-11T11:53:56.507Z,6.24
2022-08-11T11:54:59.324Z,6.04
2022-08-11T11:56:03.448Z,5.99
2022-08-11T11:57:06.150Z,5.30
2022-08-11T11:58:09.152Z,6.04
2022-08-11T11:59:14.839Z,6.09
2022-08-11T12:00:20.227Z,5.60
2022-08-11T12:01:24.212Z,6.21
2022-08-11T12:02:27.007Z,6.00
2022-08-11T12:03:30.825Z,6.11
2022-08-11T12:04:33.974Z,6.04
2022-08-11T12:05:39.718Z,5.64
2022-08-11T12:06:43.000Z,5.70
2022-08-11T12:07:45.687Z,6.61
2022-08-11T12:08:53.209Z,6.96
2022-08-11T12:09:57.555Z,5.99
2022-08-11T12:11:02.529Z,5.69
2022-08-11T12:12:05.896Z,6.13
2022-08-11T12:13:08.320Z,6.54
2022-08-11T12:14:11.264Z,6.35
2022-08-11T12:15:13.927Z,6.54
2022-08-11T12:16:34.632Z,6.41
2022-08-11T12:17:25.263Z,6.10
2022-08-11T12:18:27.983Z,6.30
2022-08-11T12:19:35.597Z,6.21
2022-08-11T12:20:36.704Z,6.25
2022-08-11T12:21:41.002Z,5.88
2022-08-11T12:22:45.634Z,6.13
2022-08-11T12:23:48.960Z,6.80
2022-08-11T12:24:51.526Z,5.83
2022-08-11T12:26:16.234Z,6.63
2022-08-11T12:27:16.027Z,5.44
2022-08-11T12:28:04.188Z,6.47
2022-08-11T12:29:09.239Z,6.56
2022-08-11T12:30:13.269Z,6.13
2022-08-11T12:31:15.835Z,7.04
2022-08-11T12:32:20.624Z,6.21
2022-08-11T12:33:24.026Z,6.44
2022-08-11T12:34:27.683Z,6.44
2022-08-11T12:35:30.365Z,6.62
2022-08-11T12:36:36.402Z,6.97
2022-08-11T12:37:47.996Z,6.57
2022-08-11T12:38:54.295Z,6.83
2022-08-11T12:40:10.734Z,6.21
2022-08-11T12:41:15.215Z,6.49
2022-08-11T12:42:12.587Z,6.18
2022-08-11T12:43:22.031Z,6.22
2022-08-11T12:44:28.539Z,6.27
2022-08-11T12:45:31.846Z,6.53
2022-08-11T12:46:36.937Z,6.63
2022-08-11T12:47:40.600Z,7.28
2022-08-11T12:48:59.079Z,6.97
2022-08-11T12:49:54.359Z,7.07
2022-08-11T12:51:03.671Z,6.85
2022-08-11T12:52:13.780Z,7.46
2022-08-11T12:53:14.096Z,7.01
2022-08-11T12:54:22.738Z,7.28
2022-08-11T12:55:25.543Z,7.14
2022-08-11T12:56:31.889Z,7.68
2022-08-11T12:57:40.928Z,7.32
2022-08-11T12:58:46.505Z,7.67
2022-08-11T12:59:52.104Z,7.84
2022-08-11T13:00:56.365Z,7.36
2022-08-11T13:01:59.775Z,7.71
2022-08-11T13:03:04.470Z,7.46
2022-08-11T13:04:06.832Z,7.69
2022-08-11T13:05:13.006Z,7.31
2022-08-11T13:06:19.079Z,7.98
2022-08-11T13:07:24.377Z,7.82
2022-08-11T13:08:28.630Z,8.02
2022-08-11T13:09:31.204Z,7.77
2022-08-11T13:10:35.462Z,7.49
2022-08-11T13:11:56.600Z,7.96
2022-08-11T13:12:46.501Z,8.28
2022-08-11T13:13:54.340Z,8.50
2022-08-11T13:14:55.519Z,7.99
2022-08-11T13:16:02.359Z,7.91
2022-08-11T13:17:05.523Z,8.25
2022-08-11T13:18:09.302Z,7.81
2022-08-11T13:19:12.364Z,7.54
2022-08-11T13:20:21.448Z,8.08
2022-08-11T13:21:25.524Z,8.71
2022-08-11T13:22:29.095Z,9.28
2022-08-11T13:23:34.245Z,7.49
2022-08-11T13:24:37.027Z,7.40
2022-08-11T13:25:43.501Z,7.67
2022-08-11T13:26:49.356Z,8.23
2022-08-11T13:27:54.636Z,8.12
2022-08-11T13:28:57.101Z,8.81
2022-08-11T13:30:00.319Z,9.05
2022-08-11T13:31:04.484Z,9.48
2022-08-11T13:32:07.823Z,8.34
2022-08-11T13:33:11.454Z,8.69
2022-08-11T13:34:15.935Z,8.28
2022-08-11T13:35:22.941Z,9.19
2022-08-11T13:36:27.132Z,8.87
2022-08-11T13:38:18.794Z,8.39
2022-08-11T13:38:35.478Z,8.26
2022-08-11T13:39:41.433Z,7.82
2022-08-11T13:40:55.602Z,8.64
2022-08-11T13:41:50.112Z,9.39
2022-08-11T13:42:53.813Z,7.94
2022-08-11T13:43:56.808Z,8.54
2022-08-11T13:44:59.480Z,9.20
2022-08-11T13:46:01.852Z,8.33
2022-08-11T13:47:06.932Z,8.42
2022-08-11T13:48:11.822Z,8.57
2022-08-11T13:49:18.966Z,9.07
2022-08-11T13:50:24.218Z,8.66
2022-08-11T13:51:34.439Z,8.14
2022-08-11T13:52:35.411Z,8.25
2022-08-11T13:53:38.465Z,9.02
2022-08-11T13:54:42.354Z,9.11
2022-08-11T13:55:51.380Z,8.83
2022-08-11T13:56:54.493Z,8.22
2022-08-11T13:58:09.096Z,8.61
2022-08-11T13:59:02.693Z,8.14
2022-08-11T14:00:26.947Z,8.93
2022-08-11T14:02:29.375Z,8.51
2022-08-11T14:04:30.134Z,8.14
2022-08-11T14:04:51.699Z,7.81
2022-08-11T14:05:57.596Z,7.90
2022-08-11T14:07:04.753Z,8.16
2022-08-11T14:08:33.498Z,7.84
2022-08-11T14:09:21.080Z,8.08
2022-08-11T14:10:27.405Z,7.80
2022-08-11T14:12:20.520Z,8.36
2022-08-11T14:12:37.263Z,8.12
2022-08-11T14:13:48.237Z,7.66
2022-08-11T14:14:50.823Z,8.55
2022-08-11T14:15:55.390Z,8.97
2022-08-11T14:17:01.421Z,7.84
2022-08-11T14:18:09.999Z,7.68
2022-08-11T14:19:14.254Z,8.23
2022-08-11T14:20:39.837Z,8.25
2022-08-11T14:21:42.498Z,8.10
2022-08-11T14:22:45.787Z,8.29
2022-08-11T14:23:50.752Z,8.58
2022-08-11T14:25:02.940Z,7.96
2022-08-11T14:26:08.200Z,7.92
2022-08-11T14:28:22.057Z,7.15
2022-08-11T14:28:33.819Z,8.19
2022-08-11T14:29:24.842Z,8.19
2022-08-11T14:30:27.779Z,7.54
2022-08-11T14:31:32.239Z,7.84
2022-08-11T14:32:34.953Z,8.14
2022-08-11T14:33:58.205Z,8.21
2022-08-11T14:34:48.489Z,7.91
2022-08-11T14:35:50.950Z,9.19
2022-08-11T14:36:56.026Z,8.61
2022-08-11T14:37:59.156Z,8.14
2022-08-11T14:39:11.097Z,7.55
2022-08-11T14:40:16.432Z,8.18
2022-08-11T14:41:19.976Z,8.17
2022-08-11T14:42:24.080Z,8.28
2022-08-11T14:44:04.722Z,7.94
2022-08-11T14:44:33.499Z,7.85
2022-08-11T14:45:57.724Z,8.34
2022-08-11T14:46:44.145Z,8.27
2022-08-11T14:47:50.107Z,8.23
2022-08-11T14:48:52.700Z,7.81
2022-08-11T14:50:10.268Z,8.53
2022-08-11T14:51:01.187Z,8.44
2022-08-11T14:52:12.927Z,8.27
2022-08-11T14:53:18.843Z,7.71
2022-08-11T14:54:23.177Z,9.02
2022-08-11T14:55:28.354Z,8.09
2022-08-11T14:56:33.607Z,8.03
2022-08-11T14:58:04.640Z,8.49
2022-08-11T14:58:43.239Z,7.42
2022-08-11T14:59:48.307Z,7.74
2022-08-11T15:00:53.615Z,7.73
2022-08-11T15:01:57.018Z,7.31
2022-08-11T15:03:00.660Z,7.89
2022-08-11T15:04:36.294Z,7.33
2022-08-11T15:05:08.629Z,7.64
2022-08-11T15:06:11.147Z,8.13
2022-08-11T15:07:17.041Z,8.19
2022-08-11T15:08:20.096Z,7.43
2022-08-11T15:09:22.380Z,7.67
2022-08-11T15:10:26.109Z,7.65
2022-08-11T15:11:31.768Z,7.92
2022-08-11T15:12:35.880Z,7.90
2022-08-11T15:13:38.673Z,7.34
2022-08-11T15:14:42.586Z,7.34
2022-08-11T15:15:45.766Z,7.18
2022-08-11T15:16:48.317Z,7.16
2022-08-11T15:17:56.091Z,7.67
2022-08-11T15:18:59.534Z,6.95
2022-08-11T15:21:18.444Z,7.11
2022-08-11T15:22:22.839Z,7.18
2022-08-11T15:23:25.037Z,6.81
2022-08-11T15:24:28.021Z,7.22
2022-08-11T15:25:34.175Z,7.64
2022-08-11T15:26:39.772Z,7.22
2022-08-11T15:27:45.074Z,7.27
2022-08-11T15:28:50.072Z,6.42
2022-08-11T15:29:53.880Z,7.93
2022-08-11T15:30:59.596Z,7.45
2022-08-11T15:32:02.645Z,7.21
2022-08-11T15:33:07.667Z,6.61
2022-08-11T15:34:13.646Z,6.79
2022-08-11T15:35:23.029Z,7.40
2022-08-11T15:36:28.414Z,7.93
2022-08-11T15:37:34.529Z,7.82
2022-08-11T15:38:40.580Z,6.98
2022-08-11T15:39:52.586Z,6.84
2022-08-11T15:40:56.494Z,6.69
2022-08-11T15:42:12.433Z,7.01
2022-08-11T15:43:28.442Z,6.86
2022-08-11T15:45:00.918Z,7.43
2022-08-11T15:45:40.929Z,7.36
2022-08-11T15:46:47.008Z,6.69
2022-08-11T15:47:52.865Z,7.01
2022-08-11T15:49:04.716Z,6.87
2022-08-11T15:50:17.431Z,7.68
2022-08-11T15:51:26.594Z,7.85
2022-08-11T15:52:35.688Z,6.96
2022-08-11T15:53:45.060Z,6.93
2022-08-11T15:54:51.120Z,6.78
2022-08-11T15:56:00.265Z,6.96
2022-08-11T15:57:10.265Z,7.42
2022-08-11T15:58:15.108Z,7.22
2022-08-11T15:59:42.879Z,7.59
2022-08-11T16:00:25.349Z,7.42
2022-08-11T16:01:30.160Z,7.57
2022-08-11T16:02:33.685Z,7.44
2022-08-11T16:04:06.214Z,7.46
2022-08-11T16:04:49.102Z,7.27